sensor_id;sensor_type;location;lat;lon;timestamp;P1;P2;P0
63305;PMS5003;50735;52.060;1.248;2022-10-17T00:01:12;12;9;
63305;PMS5003;50735;52.060;1.248;2022-10-17T00:03:40;10;8;
63305;PMS5003;50735;52.060;1.248;2022-10-17T00:06:08;10;9;
63305;PMS5003;50735;52.060;1.248;2022-10-17T00:08:38;9;8;
63305;PMS5003;50735;52.060;1.248;2022-10-17T00:11:07;12;7;
63305;PMS5003;50735;52.060;1.248;2022-10-17T00:13:39;12;7;
63305;PMS5003;50735;52.060;1.248;2022-10-17T00:16:06;14;8;
63305;PMS5003;50735;52.060;1.248;2022-10-17T00:18:33;12;10;
63305;PMS5003;50735;52.060;1.248;2022-10-17T00:21:00;12;8;
63305;PMS5003;50735;52.060;1.248;2022-10-17T00:23:27;13;10;
63305;PMS5003;50735;52.060;1.248;2022-10-17T00:25:57;12;9;
63305;PMS5003;50735;52.060;1.248;2022-10-17T00:28:25;8;6;
63305;PMS5003;50735;52.060;1.248;2022-10-17T00:30:54;8;7;
63305;PMS5003;50735;52.060;1.248;2022-10-17T00:33:21;8;6;
63305;PMS5003;50735;52.060;1.248;2022-10-17T00:35:48;12;9;
63305;PMS5003;50735;52.060;1.248;2022-10-17T00:38:14;11;8;
63305;PMS5003;50735;52.060;1.248;2022-10-17T00:40:41;11;8;
63305;PMS5003;50735;52.060;1.248;2022-10-17T00:43:10;9;7;
63305;PMS5003;50735;52.060;1.248;2022-10-17T00:45:42;10;9;
63305;PMS5003;50735;52.060;1.248;2022-10-17T00:48:09;8;8;
63305;PMS5003;50735;52.060;1.248;2022-10-17T00:50:38;11;8;
63305;PMS5003;50735;52.060;1.248;2022-10-17T00:53:07;14;12;
63305;PMS5003;50735;52.060;1.248;2022-10-17T00:55:35;11;8;
63305;PMS5003;50735;52.060;1.248;2022-10-17T00:58:08;11;8;
63305;PMS5003;50735;52.060;1.248;2022-10-17T01:00:35;11;8;
63305;PMS5003;50735;52.060;1.248;2022-10-17T01:03:02;10;10;
63305;PMS5003;50735;52.060;1.248;2022-10-17T01:05:29;10;8;
63305;PMS5003;50735;52.060;1.248;2022-10-17T01:07:56;12;9;
63305;PMS5003;50735;52.060;1.248;2022-10-17T01:10:23;8;8;
63305;PMS5003;50735;52.060;1.248;2022-10-17T01:13:03;8;8;
63305;PMS5003;50735;52.060;1.248;2022-10-17T01:15:39;9;8;
63305;PMS5003;50735;52.060;1.248;2022-10-17T01:18:19;9;8;
63305;PMS5003;50735;52.060;1.248;2022-10-17T01:21:06;11;9;
63305;PMS5003;50735;52.060;1.248;2022-10-17T01:23:53;9;8;
63305;PMS5003;50735;52.060;1.248;2022-10-17T01:26:36;11;8;
63305;PMS5003;50735;52.060;1.248;2022-10-17T01:29:23;7;7;
63305;PMS5003;50735;52.060;1.248;2022-10-17T01:31:59;15;12;
63305;PMS5003;50735;52.060;1.248;2022-10-17T01:34:31;13;8;
63305;PMS5003;50735;52.060;1.248;2022-10-17T01:37:01;9;9;
63305;PMS5003;50735;52.060;1.248;2022-10-17T01:39:35;9;8;
63305;PMS5003;50735;52.060;1.248;2022-10-17T01:42:10;11;8;
63305;PMS5003;50735;52.060;1.248;2022-10-17T01:44:44;12;11;
63305;PMS5003;50735;52.060;1.248;2022-10-17T01:47:16;11;8;
63305;PMS5003;50735;52.060;1.248;2022-10-17T01:49:45;13;8;
63305;PMS5003;50735;52.060;1.248;2022-10-17T01:52:17;11;11;
63305;PMS5003;50735;52.060;1.248;2022-10-17T01:54:50;9;7;
63305;PMS5003;50735;52.060;1.248;2022-10-17T01:57:20;11;10;
63305;PMS5003;50735;52.060;1.248;2022-10-17T01:59:52;10;8;
63305;PMS5003;50735;52.060;1.248;2022-10-17T02:02:21;14;11;
63305;PMS5003;50735;52.060;1.248;2022-10-17T02:04:50;11;11;
63305;PMS5003;50735;52.060;1.248;2022-10-17T02:07:18;9;8;
63305;PMS5003;50735;52.060;1.248;2022-10-17T02:09:45;10;9;
63305;PMS5003;50735;52.060;1.248;2022-10-17T02:12:20;12;9;
63305;PMS5003;50735;52.060;1.248;2022-10-17T02:15:04;11;8;
63305;PMS5003;50735;52.060;1.248;2022-10-17T02:17:44;7;7;
63305;PMS5003;50735;52.060;1.248;2022-10-17T02:20:19;9;9;
63305;PMS5003;50735;52.060;1.248;2022-10-17T02:22:51;11;9;
63305;PMS5003;50735;52.060;1.248;2022-10-17T02:25:28;8;8;
63305;PMS5003;50735;52.060;1.248;2022-10-17T02:28:04;12;8;
63305;PMS5003;50735;52.060;1.248;2022-10-17T02:30:38;12;10;
63305;PMS5003;50735;52.060;1.248;2022-10-17T02:33:11;10;9;
63305;PMS5003;50735;52.060;1.248;2022-10-17T02:35:42;11;11;
63305;PMS5003;50735;52.060;1.248;2022-10-17T02:38:12;10;7;
63305;PMS5003;50735;52.060;1.248;2022-10-17T02:40:39;13;11;
63305;PMS5003;50735;52.060;1.248;2022-10-17T02:43:08;10;8;
63305;PMS5003;50735;52.060;1.248;2022-10-17T02:45:35;11;10;
63305;PMS5003;50735;52.060;1.248;2022-10-17T02:48:04;11;10;
63305;PMS5003;50735;52.060;1.248;2022-10-17T02:50:37;12;11;
63305;PMS5003;50735;52.060;1.248;2022-10-17T02:53:13;8;8;
63305;PMS5003;50735;52.060;1.248;2022-10-17T02:55:44;9;9;
63305;PMS5003;50735;52.060;1.248;2022-10-17T02:58:17;10;8;
63305;PMS5003;50735;52.060;1.248;2022-10-17T03:00:46;11;9;
63305;PMS5003;50735;52.060;1.248;2022-10-17T03:03:17;13;11;
63305;PMS5003;50735;52.060;1.248;2022-10-17T03:05:46;10;10;
63305;PMS5003;50735;52.060;1.248;2022-10-17T03:08:13;9;9;
63305;PMS5003;50735;52.060;1.248;2022-10-17T03:10:39;17;12;
63305;PMS5003;50735;52.060;1.248;2022-10-17T03:13:06;9;9;
63305;PMS5003;50735;52.060;1.248;2022-10-17T03:15:33;8;8;
63305;PMS5003;50735;52.060;1.248;2022-10-17T03:17:59;12;9;
63305;PMS5003;50735;52.060;1.248;2022-10-17T03:20:26;10;10;
63305;PMS5003;50735;52.060;1.248;2022-10-17T03:22:53;8;7;
63305;PMS5003;50735;52.060;1.248;2022-10-17T03:25:19;11;9;
63305;PMS5003;50735;52.060;1.248;2022-10-17T03:27:46;11;8;
63305;PMS5003;50735;52.060;1.248;2022-10-17T03:30:14;11;8;
63305;PMS5003;50735;52.060;1.248;2022-10-17T03:32:40;12;8;
63305;PMS5003;50735;52.060;1.248;2022-10-17T03:35:07;12;9;
63305;PMS5003;50735;52.060;1.248;2022-10-17T03:37:34;7;7;
63305;PMS5003;50735;52.060;1.248;2022-10-17T03:40:01;9;9;
63305;PMS5003;50735;52.060;1.248;2022-10-17T03:42:29;11;10;
63305;PMS5003;50735;52.060;1.248;2022-10-17T03:44:57;7;7;
63305;PMS5003;50735;52.060;1.248;2022-10-17T03:47:23;8;7;
63305;PMS5003;50735;52.060;1.248;2022-10-17T03:49:50;17;11;
63305;PMS5003;50735;52.060;1.248;2022-10-17T03:52:17;9;6;
63305;PMS5003;50735;52.060;1.248;2022-10-17T03:54:43;10;8;
63305;PMS5003;50735;52.060;1.248;2022-10-17T03:57:10;11;11;
63305;PMS5003;50735;52.060;1.248;2022-10-17T03:59:37;8;8;
63305;PMS5003;50735;52.060;1.248;2022-10-17T04:02:04;10;9;
63305;PMS5003;50735;52.060;1.248;2022-10-17T04:04:31;8;8;
63305;PMS5003;50735;52.060;1.248;2022-10-17T04:06:57;10;10;
63305;PMS5003;50735;52.060;1.248;2022-10-17T04:09:24;11;8;
63305;PMS5003;50735;52.060;1.248;2022-10-17T04:11:51;10;8;
63305;PMS5003;50735;52.060;1.248;2022-10-17T04:14:18;10;7;
63305;PMS5003;50735;52.060;1.248;2022-10-17T04:16:45;7;7;
63305;PMS5003;50735;52.060;1.248;2022-10-17T04:19:12;11;9;
63305;PMS5003;50735;52.060;1.248;2022-10-17T04:21:39;14;7;
63305;PMS5003;50735;52.060;1.248;2022-10-17T04:24:08;12;10;
63305;PMS5003;50735;52.060;1.248;2022-10-17T04:26:36;10;9;
63305;PMS5003;50735;52.060;1.248;2022-10-17T04:29:03;9;7;
63305;PMS5003;50735;52.060;1.248;2022-10-17T04:31:30;8;8;
63305;PMS5003;50735;52.060;1.248;2022-10-17T04:33:57;7;7;
63305;PMS5003;50735;52.060;1.248;2022-10-17T04:36:23;10;8;
63305;PMS5003;50735;52.060;1.248;2022-10-17T04:38:50;9;7;
63305;PMS5003;50735;52.060;1.248;2022-10-17T04:41:17;9;7;
63305;PMS5003;50735;52.060;1.248;2022-10-17T04:43:44;10;8;
63305;PMS5003;50735;52.060;1.248;2022-10-17T04:46:12;11;9;
63305;PMS5003;50735;52.060;1.248;2022-10-17T04:48:40;11;9;
63305;PMS5003;50735;52.060;1.248;2022-10-17T04:51:09;10;6;
63305;PMS5003;50735;52.060;1.248;2022-10-17T04:53:38;8;7;
63305;PMS5003;50735;52.060;1.248;2022-10-17T04:56:07;12;8;
63305;PMS5003;50735;52.060;1.248;2022-10-17T04:58:34;8;8;
63305;PMS5003;50735;52.060;1.248;2022-10-17T05:01:03;10;7;
63305;PMS5003;50735;52.060;1.248;2022-10-17T05:03:31;9;7;
63305;PMS5003;50735;52.060;1.248;2022-10-17T05:05:57;10;7;
63305;PMS5003;50735;52.060;1.248;2022-10-17T05:08:24;9;6;
63305;PMS5003;50735;52.060;1.248;2022-10-17T05:10:50;7;7;
63305;PMS5003;50735;52.060;1.248;2022-10-17T05:13:18;6;6;
63305;PMS5003;50735;52.060;1.248;2022-10-17T05:15:44;8;6;
63305;PMS5003;50735;52.060;1.248;2022-10-17T05:18:11;8;8;
63305;PMS5003;50735;52.060;1.248;2022-10-17T05:20:38;8;6;
63305;PMS5003;50735;52.060;1.248;2022-10-17T05:23:05;8;8;
63305;PMS5003;50735;52.060;1.248;2022-10-17T05:25:32;10;7;
63305;PMS5003;50735;52.060;1.248;2022-10-17T05:27:58;8;8;
63305;PMS5003;50735;52.060;1.248;2022-10-17T05:30:26;6;6;
63305;PMS5003;50735;52.060;1.248;2022-10-17T05:32:53;5;5;
63305;PMS5003;50735;52.060;1.248;2022-10-17T05:35:20;6;6;
63305;PMS5003;50735;52.060;1.248;2022-10-17T05:37:48;9;6;
63305;PMS5003;50735;52.060;1.248;2022-10-17T05:40:15;11;8;
63305;PMS5003;50735;52.060;1.248;2022-10-17T05:42:44;8;6;
63305;PMS5003;50735;52.060;1.248;2022-10-17T05:45:11;9;7;
63305;PMS5003;50735;52.060;1.248;2022-10-17T05:47:39;8;5;
63305;PMS5003;50735;52.060;1.248;2022-10-17T05:50:07;10;7;
63305;PMS5003;50735;52.060;1.248;2022-10-17T05:52:34;6;6;
63305;PMS5003;50735;52.060;1.248;2022-10-17T05:55:01;8;6;
63305;PMS5003;50735;52.060;1.248;2022-10-17T05:57:29;5;5;
63305;PMS5003;50735;52.060;1.248;2022-10-17T05:59:55;8;7;
63305;PMS5003;50735;52.060;1.248;2022-10-17T06:02:22;7;5;
63305;PMS5003;50735;52.060;1.248;2022-10-17T06:04:50;10;8;
63305;PMS5003;50735;52.060;1.248;2022-10-17T06:07:17;8;6;
63305;PMS5003;50735;52.060;1.248;2022-10-17T06:09:44;8;5;
63305;PMS5003;50735;52.060;1.248;2022-10-17T06:12:11;6;6;
63305;PMS5003;50735;52.060;1.248;2022-10-17T06:14:37;9;5;
63305;PMS5003;50735;52.060;1.248;2022-10-17T06:17:04;7;6;
63305;PMS5003;50735;52.060;1.248;2022-10-17T06:19:31;9;6;
63305;PMS5003;50735;52.060;1.248;2022-10-17T06:21:57;8;6;
63305;PMS5003;50735;52.060;1.248;2022-10-17T06:24:25;7;7;
63305;PMS5003;50735;52.060;1.248;2022-10-17T06:26:52;9;8;
63305;PMS5003;50735;52.060;1.248;2022-10-17T06:29:18;8;5;
63305;PMS5003;50735;52.060;1.248;2022-10-17T06:31:45;8;7;
63305;PMS5003;50735;52.060;1.248;2022-10-17T06:34:12;11;6;
63305;PMS5003;50735;52.060;1.248;2022-10-17T06:36:38;7;6;
63305;PMS5003;50735;52.060;1.248;2022-10-17T06:39:05;10;7;
63305;PMS5003;50735;52.060;1.248;2022-10-17T06:41:31;11;8;
63305;PMS5003;50735;52.060;1.248;2022-10-17T06:43:59;7;7;
63305;PMS5003;50735;52.060;1.248;2022-10-17T06:46:25;6;6;
63305;PMS5003;50735;52.060;1.248;2022-10-17T06:48:52;4;4;
63305;PMS5003;50735;52.060;1.248;2022-10-17T06:51:18;11;7;
63305;PMS5003;50735;52.060;1.248;2022-10-17T06:53:45;17;11;
63305;PMS5003;50735;52.060;1.248;2022-10-17T06:56:12;7;7;
63305;PMS5003;50735;52.060;1.248;2022-10-17T06:58:38;7;5;
63305;PMS5003;50735;52.060;1.248;2022-10-17T07:01:07;10;10;
63305;PMS5003;50735;52.060;1.248;2022-10-17T07:03:35;8;6;
63305;PMS5003;50735;52.060;1.248;2022-10-17T07:06:03;7;7;
63305;PMS5003;50735;52.060;1.248;2022-10-17T07:08:30;8;6;
63305;PMS5003;50735;52.060;1.248;2022-10-17T07:10:57;6;6;
63305;PMS5003;50735;52.060;1.248;2022-10-17T07:13:33;9;8;
63305;PMS5003;50735;52.060;1.248;2022-10-17T07:16:00;9;9;
63305;PMS5003;50735;52.060;1.248;2022-10-17T07:18:26;8;8;
63305;PMS5003;50735;52.060;1.248;2022-10-17T07:20:53;9;9;
63305;PMS5003;50735;52.060;1.248;2022-10-17T07:23:21;7;6;
63305;PMS5003;50735;52.060;1.248;2022-10-17T07:25:48;10;7;
63305;PMS5003;50735;52.060;1.248;2022-10-17T07:28:16;10;7;
63305;PMS5003;50735;52.060;1.248;2022-10-17T07:30:42;7;6;
63305;PMS5003;50735;52.060;1.248;2022-10-17T07:33:09;4;4;
63305;PMS5003;50735;52.060;1.248;2022-10-17T07:35:36;15;7;
63305;PMS5003;50735;52.060;1.248;2022-10-17T07:38:04;7;7;
63305;PMS5003;50735;52.060;1.248;2022-10-17T07:40:30;8;6;
63305;PMS5003;50735;52.060;1.248;2022-10-17T07:42:57;7;5;
63305;PMS5003;50735;52.060;1.248;2022-10-17T07:45:23;7;7;
63305;PMS5003;50735;52.060;1.248;2022-10-17T07:47:50;9;9;
63305;PMS5003;50735;52.060;1.248;2022-10-17T07:50:16;9;6;
63305;PMS5003;50735;52.060;1.248;2022-10-17T07:52:44;8;6;
63305;PMS5003;50735;52.060;1.248;2022-10-17T07:55:10;8;7;
63305;PMS5003;50735;52.060;1.248;2022-10-17T07:57:37;7;7;
63305;PMS5003;50735;52.060;1.248;2022-10-17T08:00:03;8;8;
63305;PMS5003;50735;52.060;1.248;2022-10-17T08:02:31;10;10;
63305;PMS5003;50735;52.060;1.248;2022-10-17T08:04:58;9;6;
63305;PMS5003;50735;52.060;1.248;2022-10-17T08:07:24;12;8;
63305;PMS5003;50735;52.060;1.248;2022-10-17T08:09:51;7;5;
63305;PMS5003;50735;52.060;1.248;2022-10-17T08:12:17;8;8;
63305;PMS5003;50735;52.060;1.248;2022-10-17T08:14:44;10;9;
63305;PMS5003;50735;52.060;1.248;2022-10-17T08:17:10;5;5;
63305;PMS5003;50735;52.060;1.248;2022-10-17T08:19:38;10;7;
63305;PMS5003;50735;52.060;1.248;2022-10-17T08:22:05;9;6;
63305;PMS5003;50735;52.060;1.248;2022-10-17T08:24:32;6;4;
63305;PMS5003;50735;52.060;1.248;2022-10-17T08:27:00;8;8;
63305;PMS5003;50735;52.060;1.248;2022-10-17T08:29:27;12;7;
63305;PMS5003;50735;52.060;1.248;2022-10-17T08:31:55;9;8;
63305;PMS5003;50735;52.060;1.248;2022-10-17T08:34:21;6;5;
63305;PMS5003;50735;52.060;1.248;2022-10-17T08:36:48;9;7;
63305;PMS5003;50735;52.060;1.248;2022-10-17T08:39:14;9;7;
63305;PMS5003;50735;52.060;1.248;2022-10-17T08:41:44;9;8;
63305;PMS5003;50735;52.060;1.248;2022-10-17T08:44:26;8;6;
63305;PMS5003;50735;52.060;1.248;2022-10-17T08:47:05;10;7;
63305;PMS5003;50735;52.060;1.248;2022-10-17T08:49:38;10;6;
63305;PMS5003;50735;52.060;1.248;2022-10-17T08:52:10;9;6;
63305;PMS5003;50735;52.060;1.248;2022-10-17T08:54:46;6;6;
63305;PMS5003;50735;52.060;1.248;2022-10-17T08:57:15;8;6;
63305;PMS5003;50735;52.060;1.248;2022-10-17T08:59:43;5;5;
63305;PMS5003;50735;52.060;1.248;2022-10-17T09:02:20;9;6;
63305;PMS5003;50735;52.060;1.248;2022-10-17T09:05:03;7;7;
63305;PMS5003;50735;52.060;1.248;2022-10-17T09:07:46;6;5;
63305;PMS5003;50735;52.060;1.248;2022-10-17T09:10:20;5;5;
63305;PMS5003;50735;52.060;1.248;2022-10-17T09:13:00;7;7;
63305;PMS5003;50735;52.060;1.248;2022-10-17T09:15:41;10;10;
63305;PMS5003;50735;52.060;1.248;2022-10-17T09:18:19;7;5;
63305;PMS5003;50735;52.060;1.248;2022-10-17T09:20:53;5;5;
63305;PMS5003;50735;52.060;1.248;2022-10-17T09:23:25;8;5;
63305;PMS5003;50735;52.060;1.248;2022-10-17T09:25:57;5;5;
63305;PMS5003;50735;52.060;1.248;2022-10-17T09:28:27;7;7;
63305;PMS5003;50735;52.060;1.248;2022-10-17T09:30:58;5;3;
63305;PMS5003;50735;52.060;1.248;2022-10-17T09:33:28;11;4;
63305;PMS5003;50735;52.060;1.248;2022-10-17T09:35:59;6;6;
63305;PMS5003;50735;52.060;1.248;2022-10-17T09:38:32;9;5;
63305;PMS5003;50735;52.060;1.248;2022-10-17T09:41:03;6;5;
63305;PMS5003;50735;52.060;1.248;2022-10-17T09:43:39;8;6;
63305;PMS5003;50735;52.060;1.248;2022-10-17T09:46:07;11;5;
63305;PMS5003;50735;52.060;1.248;2022-10-17T09:48:39;7;5;
63305;PMS5003;50735;52.060;1.248;2022-10-17T09:51:09;4;4;
63305;PMS5003;50735;52.060;1.248;2022-10-17T09:53:37;8;6;
63305;PMS5003;50735;52.060;1.248;2022-10-17T09:56:07;5;5;
63305;PMS5003;50735;52.060;1.248;2022-10-17T09:58:38;7;6;
63305;PMS5003;50735;52.060;1.248;2022-10-17T10:01:15;7;6;
63305;PMS5003;50735;52.060;1.248;2022-10-17T10:03:43;4;4;
63305;PMS5003;50735;52.060;1.248;2022-10-17T10:06:12;4;4;
63305;PMS5003;50735;52.060;1.248;2022-10-17T10:08:49;4;4;
63305;PMS5003;50735;52.060;1.248;2022-10-17T10:11:17;7;5;
63305;PMS5003;50735;52.060;1.248;2022-10-17T10:13:48;7;7;
63305;PMS5003;50735;52.060;1.248;2022-10-17T10:16:17;8;6;
63305;PMS5003;50735;52.060;1.248;2022-10-17T10:18:46;7;4;
63305;PMS5003;50735;52.060;1.248;2022-10-17T10:21:15;4;4;
63305;PMS5003;50735;52.060;1.248;2022-10-17T10:23:44;7;6;
63305;PMS5003;50735;52.060;1.248;2022-10-17T10:26:29;6;3;
63305;PMS5003;50735;52.060;1.248;2022-10-17T10:29:01;4;2;
63305;PMS5003;50735;52.060;1.248;2022-10-17T10:31:32;4;4;
63305;PMS5003;50735;52.060;1.248;2022-10-17T10:34:03;7;6;
63305;PMS5003;50735;52.060;1.248;2022-10-17T10:36:42;4;4;
63305;PMS5003;50735;52.060;1.248;2022-10-17T10:39:15;5;4;
63305;PMS5003;50735;52.060;1.248;2022-10-17T10:41:52;6;6;
63305;PMS5003;50735;52.060;1.248;2022-10-17T10:44:20;3;3;
63305;PMS5003;50735;52.060;1.248;2022-10-17T10:47:04;6;3;
63305;PMS5003;50735;52.060;1.248;2022-10-17T10:49:32;3;3;
63305;PMS5003;50735;52.060;1.248;2022-10-17T10:51:59;7;5;
63305;PMS5003;50735;52.060;1.248;2022-10-17T10:54:29;4;2;
63305;PMS5003;50735;52.060;1.248;2022-10-17T10:57:03;3;3;
63305;PMS5003;50735;52.060;1.248;2022-10-17T10:59:36;5;0;
63305;PMS5003;50735;52.060;1.248;2022-10-17T11:02:09;5;4;
63305;PMS5003;50735;52.060;1.248;2022-10-17T11:04:42;4;3;
63305;PMS5003;50735;52.060;1.248;2022-10-17T11:07:14;4;3;
63305;PMS5003;50735;52.060;1.248;2022-10-17T11:09:47;5;2;
63305;PMS5003;50735;52.060;1.248;2022-10-17T11:12:23;9;4;
63305;PMS5003;50735;52.060;1.248;2022-10-17T11:14:56;4;4;
63305;PMS5003;50735;52.060;1.248;2022-10-17T11:17:29;5;2;
63305;PMS5003;50735;52.060;1.248;2022-10-17T11:20:05;7;3;
63305;PMS5003;50735;52.060;1.248;2022-10-17T11:22:37;5;2;
63305;PMS5003;50735;52.060;1.248;2022-10-17T11:25:13;5;2;
63305;PMS5003;50735;52.060;1.248;2022-10-17T11:27:47;2;2;
63305;PMS5003;50735;52.060;1.248;2022-10-17T11:30:15;2;2;
63305;PMS5003;50735;52.060;1.248;2022-10-17T11:32:43;5;3;
63305;PMS5003;50735;52.060;1.248;2022-10-17T11:35:15;4;3;
63305;PMS5003;50735;52.060;1.248;2022-10-17T11:37:48;1;1;
63305;PMS5003;50735;52.060;1.248;2022-10-17T11:40:20;7;2;
63305;PMS5003;50735;52.060;1.248;2022-10-17T11:42:52;5;1;
63305;PMS5003;50735;52.060;1.248;2022-10-17T11:45:24;3;3;
63305;PMS5003;50735;52.060;1.248;2022-10-17T11:47:57;5;4;
63305;PMS5003;50735;52.060;1.248;2022-10-17T11:50:28;2;2;
63305;PMS5003;50735;52.060;1.248;2022-10-17T11:52:57;3;3;
63305;PMS5003;50735;52.060;1.248;2022-10-17T11:55:29;3;2;
63305;PMS5003;50735;52.060;1.248;2022-10-17T11:58:00;9;4;
63305;PMS5003;50735;52.060;1.248;2022-10-17T12:00:46;3;1;
63305;PMS5003;50735;52.060;1.248;2022-10-17T12:03:24;3;3;
63305;PMS5003;50735;52.060;1.248;2022-10-17T12:06:02;4;3;
63305;PMS5003;50735;52.060;1.248;2022-10-17T12:08:39;4;1;
63305;PMS5003;50735;52.060;1.248;2022-10-17T12:11:16;3;2;
63305;PMS5003;50735;52.060;1.248;2022-10-17T12:13:52;2;2;
63305;PMS5003;50735;52.060;1.248;2022-10-17T12:16:53;6;5;
63305;PMS5003;50735;52.060;1.248;2022-10-17T12:19:22;3;3;
63305;PMS5003;50735;52.060;1.248;2022-10-17T12:21:53;4;1;
63305;PMS5003;50735;52.060;1.248;2022-10-17T12:24:24;3;2;
63305;PMS5003;50735;52.060;1.248;2022-10-17T12:27:19;4;2;
63305;PMS5003;50735;52.060;1.248;2022-10-17T12:29:48;6;3;
63305;PMS5003;50735;52.060;1.248;2022-10-17T12:32:15;4;2;
63305;PMS5003;50735;52.060;1.248;2022-10-17T12:34:50;2;2;
63305;PMS5003;50735;52.060;1.248;2022-10-17T12:37:37;5;0;
63305;PMS5003;50735;52.060;1.248;2022-10-17T12:41:51;1;1;
63305;PMS5003;50735;52.060;1.248;2022-10-17T12:44:34;2;0;
63305;PMS5003;50735;52.060;1.248;2022-10-17T12:47:26;2;2;
63305;PMS5003;50735;52.060;1.248;2022-10-17T12:50:01;2;1;
63305;PMS5003;50735;52.060;1.248;2022-10-17T12:52:51;5;3;
63305;PMS5003;50735;52.060;1.248;2022-10-17T12:55:26;1;1;
63305;PMS5003;50735;52.060;1.248;2022-10-17T12:57:54;3;1;
63305;PMS5003;50735;52.060;1.248;2022-10-17T13:00:30;1;0;
63305;PMS5003;50735;52.060;1.248;2022-10-17T13:03:03;2;2;
63305;PMS5003;50735;52.060;1.248;2022-10-17T13:05:37;2;0;
63305;PMS5003;50735;52.060;1.248;2022-10-17T13:08:07;1;1;
63305;PMS5003;50735;52.060;1.248;2022-10-17T13:10:43;5;1;
63305;PMS5003;50735;52.060;1.248;2022-10-17T13:13:13;2;2;
63305;PMS5003;50735;52.060;1.248;2022-10-17T13:15:45;2;0;
63305;PMS5003;50735;52.060;1.248;2022-10-17T13:18:16;2;0;
63305;PMS5003;50735;52.060;1.248;2022-10-17T13:20:53;4;2;
63305;PMS5003;50735;52.060;1.248;2022-10-17T13:23:21;3;1;
63305;PMS5003;50735;52.060;1.248;2022-10-17T13:26:00;3;2;
63305;PMS5003;50735;52.060;1.248;2022-10-17T13:28:29;3;3;
63305;PMS5003;50735;52.060;1.248;2022-10-17T13:30:55;2;2;
63305;PMS5003;50735;52.060;1.248;2022-10-17T13:33:27;4;3;
63305;PMS5003;50735;52.060;1.248;2022-10-17T13:35:57;4;1;
63305;PMS5003;50735;52.060;1.248;2022-10-17T13:38:25;4;3;
63305;PMS5003;50735;52.060;1.248;2022-10-17T13:40:54;3;2;
63305;PMS5003;50735;52.060;1.248;2022-10-17T13:43:21;3;3;
63305;PMS5003;50735;52.060;1.248;2022-10-17T13:45:49;4;3;
63305;PMS5003;50735;52.060;1.248;2022-10-17T13:48:20;2;2;
63305;PMS5003;50735;52.060;1.248;2022-10-17T13:50:50;3;2;
63305;PMS5003;50735;52.060;1.248;2022-10-17T13:53:23;4;1;
63305;PMS5003;50735;52.060;1.248;2022-10-17T13:55:53;5;2;
63305;PMS5003;50735;52.060;1.248;2022-10-17T13:58:22;3;3;
63305;PMS5003;50735;52.060;1.248;2022-10-17T14:00:49;3;1;
63305;PMS5003;50735;52.060;1.248;2022-10-17T14:03:18;3;1;
63305;PMS5003;50735;52.060;1.248;2022-10-17T14:06:03;3;1;
63305;PMS5003;50735;52.060;1.248;2022-10-17T14:08:35;4;3;
63305;PMS5003;50735;52.060;1.248;2022-10-17T14:11:11;7;7;
63305;PMS5003;50735;52.060;1.248;2022-10-17T14:13:40;3;1;
63305;PMS5003;50735;52.060;1.248;2022-10-17T14:16:08;3;1;
63305;PMS5003;50735;52.060;1.248;2022-10-17T14:18:35;5;2;
63305;PMS5003;50735;52.060;1.248;2022-10-17T14:21:04;4;2;
63305;PMS5003;50735;52.060;1.248;2022-10-17T14:23:33;3;1;
63305;PMS5003;50735;52.060;1.248;2022-10-17T14:26:04;6;2;
63305;PMS5003;50735;52.060;1.248;2022-10-17T14:28:32;8;3;
63305;PMS5003;50735;52.060;1.248;2022-10-17T14:31:32;4;3;
63305;PMS5003;50735;52.060;1.248;2022-10-17T14:34:00;4;1;
63305;PMS5003;50735;52.060;1.248;2022-10-17T14:36:30;2;2;
63305;PMS5003;50735;52.060;1.248;2022-10-17T14:38:59;4;1;
63305;PMS5003;50735;52.060;1.248;2022-10-17T14:41:28;1;1;
63305;PMS5003;50735;52.060;1.248;2022-10-17T14:43:58;1;0;
63305;PMS5003;50735;52.060;1.248;2022-10-17T14:46:27;3;2;
63305;PMS5003;50735;52.060;1.248;2022-10-17T14:48:55;0;0;
63305;PMS5003;50735;52.060;1.248;2022-10-17T14:51:30;4;2;
63305;PMS5003;50735;52.060;1.248;2022-10-17T14:53:58;6;3;
63305;PMS5003;50735;52.060;1.248;2022-10-17T14:56:32;5;3;
63305;PMS5003;50735;52.060;1.248;2022-10-17T14:59:02;7;3;
63305;PMS5003;50735;52.060;1.248;2022-10-17T15:01:29;4;3;
63305;PMS5003;50735;52.060;1.248;2022-10-17T15:03:55;8;6;
63305;PMS5003;50735;52.060;1.248;2022-10-17T15:06:23;4;1;
63305;PMS5003;50735;52.060;1.248;2022-10-17T15:08:53;6;1;
63305;PMS5003;50735;52.060;1.248;2022-10-17T15:11:20;4;4;
63305;PMS5003;50735;52.060;1.248;2022-10-17T15:13:46;4;2;
63305;PMS5003;50735;52.060;1.248;2022-10-17T15:16:14;4;3;
63305;PMS5003;50735;52.060;1.248;2022-10-17T15:18:44;2;2;
63305;PMS5003;50735;52.060;1.248;2022-10-17T15:21:11;4;3;
63305;PMS5003;50735;52.060;1.248;2022-10-17T15:23:40;6;3;
63305;PMS5003;50735;52.060;1.248;2022-10-17T15:26:10;6;4;
63305;PMS5003;50735;52.060;1.248;2022-10-17T15:28:39;2;2;
63305;PMS5003;50735;52.060;1.248;2022-10-17T15:31:08;7;3;
63305;PMS5003;50735;52.060;1.248;2022-10-17T15:33:36;5;2;
63305;PMS5003;50735;52.060;1.248;2022-10-17T15:36:04;10;5;
63305;PMS5003;50735;52.060;1.248;2022-10-17T15:38:31;3;2;
63305;PMS5003;50735;52.060;1.248;2022-10-17T15:40:58;7;6;
63305;PMS5003;50735;52.060;1.248;2022-10-17T15:43:25;8;5;
63305;PMS5003;50735;52.060;1.248;2022-10-17T15:45:51;6;5;
63305;PMS5003;50735;52.060;1.248;2022-10-17T15:48:20;8;3;
63305;PMS5003;50735;52.060;1.248;2022-10-17T15:50:55;6;6;
63305;PMS5003;50735;52.060;1.248;2022-10-17T15:53:22;6;3;
63305;PMS5003;50735;52.060;1.248;2022-10-17T15:55:49;7;5;
63305;PMS5003;50735;52.060;1.248;2022-10-17T15:58:16;9;3;
63305;PMS5003;50735;52.060;1.248;2022-10-17T16:00:44;7;3;
63305;PMS5003;50735;52.060;1.248;2022-10-17T16:03:11;8;3;
63305;PMS5003;50735;52.060;1.248;2022-10-17T16:05:38;7;2;
63305;PMS5003;50735;52.060;1.248;2022-10-17T16:08:05;8;4;
63305;PMS5003;50735;52.060;1.248;2022-10-17T16:10:32;6;2;
63305;PMS5003;50735;52.060;1.248;2022-10-17T16:13:00;5;5;
63305;PMS5003;50735;52.060;1.248;2022-10-17T16:15:26;7;3;
63305;PMS5003;50735;52.060;1.248;2022-10-17T16:17:53;6;3;
63305;PMS5003;50735;52.060;1.248;2022-10-17T16:20:21;3;3;
63305;PMS5003;50735;52.060;1.248;2022-10-17T16:22:49;6;5;
63305;PMS5003;50735;52.060;1.248;2022-10-17T16:25:18;4;3;
63305;PMS5003;50735;52.060;1.248;2022-10-17T16:27:47;4;3;
63305;PMS5003;50735;52.060;1.248;2022-10-17T16:30:16;3;3;
63305;PMS5003;50735;52.060;1.248;2022-10-17T16:32:43;3;3;
63305;PMS5003;50735;52.060;1.248;2022-10-17T16:35:10;7;4;
63305;PMS5003;50735;52.060;1.248;2022-10-17T16:37:42;8;3;
63305;PMS5003;50735;52.060;1.248;2022-10-17T16:40:09;5;2;
63305;PMS5003;50735;52.060;1.248;2022-10-17T16:42:37;4;3;
63305;PMS5003;50735;52.060;1.248;2022-10-17T16:45:04;4;4;
63305;PMS5003;50735;52.060;1.248;2022-10-17T16:47:31;3;3;
63305;PMS5003;50735;52.060;1.248;2022-10-17T16:49:57;4;4;
63305;PMS5003;50735;52.060;1.248;2022-10-17T16:52:24;3;2;
63305;PMS5003;50735;52.060;1.248;2022-10-17T16:54:51;5;3;
63305;PMS5003;50735;52.060;1.248;2022-10-17T16:57:17;5;5;
63305;PMS5003;50735;52.060;1.248;2022-10-17T16:59:44;4;3;
63305;PMS5003;50735;52.060;1.248;2022-10-17T17:02:10;6;6;
63305;PMS5003;50735;52.060;1.248;2022-10-17T17:04:37;5;4;
63305;PMS5003;50735;52.060;1.248;2022-10-17T17:07:04;17;17;